createdAt,value
2019-03-28T00:00:31.730Z,89
2019-03-28T00:01:35.035Z,89
2019-03-28T00:02:37.939Z,89
2019-03-28T00:03:40.355Z,89
2019-03-28T00:04:43.671Z,89
2019-03-28T00:05:45.964Z,89
2019-03-28T00:06:48.930Z,89
2019-03-28T00:07:51.016Z,89
2019-03-28T00:08:54.339Z,89
2019-03-28T00:09:57.435Z,89
2019-03-28T00:11:00.782Z,89
2019-03-28T00:12:03.056Z,89
2019-03-28T00:13:05.929Z,89
2019-03-28T00:14:08.442Z,89
2019-03-28T00:15:10.566Z,89
2019-03-28T00:16:13.527Z,89
2019-03-28T00:17:15.889Z,89
2019-03-28T00:18:18.017Z,89
2019-03-28T00:19:20.988Z,89
2019-03-28T00:20:23.384Z,89
2019-03-28T00:21:26.277Z,89
2019-03-28T00:22:29.481Z,89
2019-03-28T00:23:32.378Z,89
2019-03-28T00:24:34.464Z,89
2019-03-28T00:25:36.566Z,89
2019-03-28T00:26:38.712Z,89
2019-03-28T00:27:41.592Z,89
2019-03-28T00:28:43.872Z,89
2019-03-28T00:29:46.147Z,88
2019-03-28T00:30:48.982Z,88
2019-03-28T00:31:51.407Z,89
2019-03-28T00:32:53.679Z,88
2019-03-28T00:33:56.405Z,88
2019-03-28T00:34:59.169Z,88
2019-03-28T00:36:02.433Z,88
2019-03-28T00:37:09.106Z,88
2019-03-28T00:38:11.319Z,88
2019-03-28T00:39:13.438Z,88
2019-03-28T00:40:15.522Z,88
2019-03-28T00:41:17.641Z,88
2019-03-28T00:42:20.190Z,89
2019-03-28T00:43:22.346Z,88
2019-03-28T00:44:25.281Z,89
2019-03-28T00:45:27.604Z,89
2019-03-28T00:46:29.789Z,89
2019-03-28T00:47:31.874Z,89
2019-03-28T00:48:33.970Z,89
2019-03-28T00:49:36.084Z,89
2019-03-28T00:50:38.224Z,89
2019-03-28T00:51:43.919Z,89
2019-03-28T00:52:48.434Z,89
2019-03-28T00:53:56.135Z,89
2019-03-28T00:55:04.882Z,89
2019-03-28T00:56:15.261Z,89
2019-03-28T00:57:23.337Z,89
2019-03-28T00:58:27.979Z,89
2019-03-28T00:59:31.438Z,89
2019-03-28T01:00:33.601Z,89
2019-03-28T01:01:35.709Z,89
2019-03-28T01:02:38.077Z,89
2019-03-28T01:03:40.468Z,89
2019-03-28T01:04:42.570Z,89
2019-03-28T01:05:44.684Z,89
2019-03-28T01:06:51.448Z,89
2019-03-28T01:07:59.939Z,89
2019-03-28T01:09:09.063Z,89
2019-03-28T01:10:14.489Z,89
2019-03-28T01:11:18.098Z,89
2019-03-28T01:12:21.029Z,89
2019-03-28T01:13:23.256Z,89
2019-03-28T01:14:25.626Z,89
2019-03-28T01:15:28.027Z,89
2019-03-28T01:16:30.104Z,89
2019-03-28T01:17:32.223Z,89
2019-03-28T01:18:34.319Z,89
2019-03-28T01:19:36.407Z,89
2019-03-28T01:20:38.507Z,89
2019-03-28T01:21:41.514Z,89
2019-03-28T01:22:43.614Z,89
2019-03-28T01:23:46.518Z,89
2019-03-28T01:24:48.606Z,89
2019-03-28T01:25:50.703Z,89
2019-03-28T01:26:59.720Z,89
2019-03-28T01:28:01.812Z,89
2019-03-28T01:29:04.230Z,89
2019-03-28T01:30:06.324Z,89
2019-03-28T01:31:08.409Z,89
2019-03-28T01:32:10.500Z,89
2019-03-28T01:33:12.602Z,89
2019-03-28T01:34:14.690Z,89
2019-03-28T01:35:17.197Z,89
2019-03-28T01:36:19.286Z,89
2019-03-28T01:37:21.362Z,89
2019-03-28T01:38:23.459Z,89
2019-03-28T01:39:25.563Z,89
2019-03-28T01:40:27.922Z,89
2019-03-28T01:41:30.022Z,89
2019-03-28T01:42:32.419Z,89
2019-03-28T01:43:34.893Z,89
2019-03-28T01:44:36.998Z,89
2019-03-28T01:45:40.157Z,89
2019-03-28T01:46:42.628Z,89
2019-03-28T01:47:44.718Z,89
2019-03-28T01:48:46.837Z,89
2019-03-28T01:49:48.919Z,89
2019-03-28T01:50:51.884Z,89
2019-03-28T01:51:53.983Z,89
2019-03-28T01:52:56.354Z,89
2019-03-28T01:53:58.507Z,90
2019-03-28T01:55:00.672Z,90
2019-03-28T01:56:03.740Z,90
2019-03-28T01:57:14.360Z,89
2019-03-28T01:58:16.493Z,90
2019-03-28T01:59:18.584Z,90
2019-03-28T02:00:20.674Z,90
2019-03-28T02:01:22.786Z,90
2019-03-28T02:02:24.873Z,90
2019-03-28T02:03:26.967Z,90
2019-03-28T02:04:29.134Z,90
2019-03-28T02:05:31.520Z,90
2019-03-28T02:06:34.732Z,90
2019-03-28T02:07:36.837Z,90
2019-03-28T02:08:38.957Z,90
2019-03-28T02:09:41.077Z,90
2019-03-28T02:10:43.190Z,90
2019-03-28T02:11:45.280Z,90
2019-03-28T02:12:47.364Z,90
2019-03-28T02:13:49.469Z,90
2019-03-28T02:14:52.116Z,90
2019-03-28T02:15:55.317Z,90
2019-03-28T02:16:57.496Z,90
2019-03-28T02:17:59.572Z,90
2019-03-28T02:19:01.668Z,90
2019-03-28T02:20:04.043Z,90
2019-03-28T02:21:06.147Z,90
2019-03-28T02:22:11.516Z,90
2019-03-28T02:23:14.296Z,90
2019-03-28T02:24:16.389Z,90
2019-03-28T02:25:18.759Z,90
2019-03-28T02:26:20.863Z,90
2019-03-28T02:27:26.635Z,90
2019-03-28T02:28:29.017Z,90
2019-03-28T02:29:31.108Z,90
2019-03-28T02:30:33.515Z,90
2019-03-28T02:31:35.630Z,90
2019-03-28T02:32:38.136Z,90
2019-03-28T02:33:40.564Z,90
2019-03-28T02:34:43.043Z,90
2019-03-28T02:35:45.174Z,90
2019-03-28T02:36:47.326Z,90
2019-03-28T02:37:49.704Z,90
2019-03-28T02:38:52.126Z,90
2019-03-28T02:39:55.313Z,90
2019-03-28T02:40:57.429Z,90
2019-03-28T02:41:59.845Z,90
2019-03-28T02:43:03.304Z,90
2019-03-28T02:44:05.423Z,90
2019-03-28T02:45:07.533Z,90
2019-03-28T02:46:10.300Z,90
2019-03-28T02:47:12.423Z,90
2019-03-28T02:48:15.207Z,90
2019-03-28T02:49:17.299Z,90
2019-03-28T02:50:20.711Z,90
2019-03-28T02:51:22.880Z,90
2019-03-28T02:52:25.389Z,90
2019-03-28T02:53:27.517Z,90
2019-03-28T02:54:29.626Z,90
2019-03-28T02:55:33.289Z,90
2019-03-28T02:56:35.717Z,90
2019-03-28T02:57:44.708Z,90
2019-03-28T02:58:47.095Z,90
2019-03-28T02:59:49.203Z,90
2019-03-28T03:00:51.915Z,90
2019-03-28T03:01:54.424Z,90
2019-03-28T03:02:57.278Z,90
2019-03-28T03:03:59.425Z,90
2019-03-28T03:05:01.516Z,90
2019-03-28T03:06:04.645Z,90
2019-03-28T03:07:07.581Z,90
2019-03-28T03:08:09.960Z,90
2019-03-28T03:09:12.069Z,90
2019-03-28T03:10:14.480Z,90
2019-03-28T03:11:17.168Z,90
2019-03-28T03:12:19.600Z,90
2019-03-28T03:13:22.115Z,90
2019-03-28T03:14:24.499Z,90
2019-03-28T03:15:27.001Z,90
2019-03-28T03:16:29.381Z,90
2019-03-28T03:17:31.863Z,90
2019-03-28T03:18:35.152Z,90
2019-03-28T03:19:37.259Z,90
2019-03-28T03:20:39.668Z,90
2019-03-28T03:21:42.054Z,90
2019-03-28T03:22:44.469Z,90
2019-03-28T03:23:48.173Z,90
2019-03-28T03:24:50.287Z,90
2019-03-28T03:25:52.823Z,90
2019-03-28T03:26:55.046Z,90
2019-03-28T03:28:00.232Z,90
2019-03-28T03:29:03.007Z,90
2019-03-28T03:30:05.603Z,89
2019-03-28T03:31:08.189Z,89
2019-03-28T03:32:10.691Z,90
2019-03-28T03:33:13.203Z,89
2019-03-28T03:34:15.773Z,89
2019-03-28T03:35:17.904Z,89
2019-03-28T03:36:20.739Z,89
2019-03-28T03:37:23.147Z,89
2019-03-28T03:38:25.897Z,89
2019-03-28T03:39:28.292Z,89
2019-03-28T03:40:30.587Z,89
2019-03-28T03:41:32.990Z,89
2019-03-28T03:42:35.425Z,89
2019-03-28T03:43:37.520Z,89
2019-03-28T03:44:39.615Z,89
2019-03-28T03:45:42.684Z,89
2019-03-28T03:46:44.832Z,89
2019-03-28T03:47:47.314Z,89
2019-03-28T03:48:49.435Z,89
2019-03-28T03:49:52.117Z,89
2019-03-28T03:50:54.499Z,89
2019-03-28T03:51:57.010Z,89
2019-03-28T03:52:59.540Z,89
2019-03-28T03:54:02.313Z,89
2019-03-28T03:55:04.436Z,89
2019-03-28T03:56:07.112Z,89
2019-03-28T03:57:09.532Z,89
2019-03-28T03:58:19.641Z,89
2019-03-28T03:59:21.770Z,89
2019-03-28T04:00:24.261Z,89
2019-03-28T04:01:26.372Z,89
2019-03-28T04:02:28.462Z,89
2019-03-28T04:03:31.161Z,89
2019-03-28T04:04:33.270Z,89
2019-03-28T04:05:35.394Z,89
2019-03-28T04:06:38.509Z,89
2019-03-28T04:07:40.896Z,89
2019-03-28T04:08:43.323Z,89
2019-03-28T04:09:45.718Z,89
2019-03-28T04:10:48.144Z,89
2019-03-28T04:11:50.281Z,89
2019-03-28T04:12:52.687Z,89
2019-03-28T04:13:54.789Z,89
2019-03-28T04:14:57.647Z,89
2019-03-28T04:16:00.060Z,89
2019-03-28T04:17:02.189Z,89
2019-03-28T04:18:04.858Z,89
2019-03-28T04:19:07.383Z,89
2019-03-28T04:20:09.513Z,89
2019-03-28T04:21:11.613Z,89
2019-03-28T04:22:14.124Z,89
2019-03-28T04:23:16.616Z,89
2019-03-28T04:24:18.725Z,89
2019-03-28T04:25:21.113Z,89
2019-03-28T04:26:23.501Z,89
2019-03-28T04:27:25.595Z,89
2019-03-28T04:28:33.536Z,89
2019-03-28T04:29:35.640Z,89
2019-03-28T04:30:38.130Z,89
2019-03-28T04:31:41.125Z,89
2019-03-28T04:32:43.521Z,89
2019-03-28T04:33:45.670Z,89
2019-03-28T04:34:48.748Z,89
2019-03-28T04:35:51.558Z,89
2019-03-28T04:36:53.628Z,89
2019-03-28T04:37:55.725Z,89
2019-03-28T04:38:58.133Z,89
2019-03-28T04:40:00.473Z,89
2019-03-28T04:41:02.619Z,89
2019-03-28T04:42:04.996Z,89
2019-03-28T04:43:07.379Z,89
2019-03-28T04:44:10.028Z,89
2019-03-28T04:45:12.146Z,89
2019-03-28T04:46:14.517Z,89
2019-03-28T04:47:16.603Z,89
2019-03-28T04:48:18.982Z,89
2019-03-28T04:49:21.066Z,89
2019-03-28T04:50:23.160Z,89
2019-03-28T04:51:25.257Z,89
2019-03-28T04:52:27.651Z,89
2019-03-28T04:53:30.626Z,89
2019-03-28T04:54:33.001Z,89
2019-03-28T04:55:35.082Z,89
2019-03-28T04:56:37.178Z,89
2019-03-28T04:57:42.755Z,89
2019-03-28T04:58:45.870Z,89
2019-03-28T04:59:47.962Z,89
2019-03-28T05:00:50.345Z,89
2019-03-28T05:02:05.846Z,89
2019-03-28T05:03:08.219Z,89
2019-03-28T05:04:10.635Z,89
2019-03-28T05:05:12.717Z,89
2019-03-28T05:06:15.084Z,89
2019-03-28T05:07:17.401Z,89
2019-03-28T05:08:19.500Z,89
2019-03-28T05:09:21.573Z,89
2019-03-28T05:10:23.686Z,89
2019-03-28T05:11:25.778Z,89
2019-03-28T05:12:27.862Z,89
2019-03-28T05:13:30.349Z,89
2019-03-28T05:14:32.748Z,89
2019-03-28T05:15:34.835Z,89
2019-03-28T05:16:37.493Z,89
2019-03-28T05:17:40.948Z,89
2019-03-28T05:18:43.124Z,89
2019-03-28T05:19:45.253Z,89
2019-03-28T05:20:47.342Z,89
2019-03-28T05:21:49.449Z,89
2019-03-28T05:22:51.810Z,89
2019-03-28T05:23:53.938Z,89
2019-03-28T05:24:56.341Z,89
2019-03-28T05:25:58.425Z,89
2019-03-28T05:27:00.507Z,89
2019-03-28T05:28:02.605Z,89
2019-03-28T05:29:04.684Z,89
2019-03-28T05:30:07.579Z,88
2019-03-28T05:31:09.680Z,88
2019-03-28T05:32:11.782Z,88
2019-03-28T05:33:14.280Z,88
2019-03-28T05:34:16.439Z,88
2019-03-28T05:35:18.529Z,88
2019-03-28T05:36:20.660Z,88
2019-03-28T05:37:22.765Z,89
2019-03-28T05:38:24.848Z,89
2019-03-28T05:39:26.946Z,88
2019-03-28T05:40:30.585Z,88
2019-03-28T05:41:32.763Z,88
2019-03-28T05:42:34.849Z,88
2019-03-28T05:43:37.513Z,88
2019-03-28T05:44:39.599Z,88
2019-03-28T05:45:41.709Z,88
2019-03-28T05:46:44.094Z,88
2019-03-28T05:47:46.560Z,88
2019-03-28T05:48:48.660Z,88
2019-03-28T05:49:50.757Z,88
2019-03-28T05:50:53.429Z,88
2019-03-28T05:51:55.510Z,88
2019-03-28T05:52:57.882Z,88
2019-03-28T05:53:59.968Z,88
2019-03-28T05:55:05.818Z,88
2019-03-28T05:56:07.917Z,88
2019-03-28T05:57:10.081Z,88
2019-03-28T05:58:12.180Z,88
2019-03-28T05:59:14.289Z,88
2019-03-28T06:00:16.762Z,88
2019-03-28T06:01:18.851Z,88
2019-03-28T06:02:20.938Z,88
2019-03-28T06:03:23.416Z,88
2019-03-28T06:04:25.521Z,88
2019-03-28T06:05:27.606Z,88
2019-03-28T06:06:30.271Z,88
2019-03-28T06:07:32.385Z,88
2019-03-28T06:08:34.485Z,88
2019-03-28T06:09:36.568Z,88
2019-03-28T06:10:41.902Z,88
2019-03-28T06:11:43.987Z,88
2019-03-28T06:12:46.359Z,88
2019-03-28T06:13:48.458Z,88
2019-03-28T06:14:50.557Z,88
2019-03-28T06:15:52.632Z,88
2019-03-28T06:16:54.743Z,88
2019-03-28T06:17:56.838Z,88
2019-03-28T06:18:59.209Z,88
2019-03-28T06:20:01.400Z,88
2019-03-28T06:21:03.835Z,88
2019-03-28T06:22:05.927Z,88
2019-03-28T06:23:08.505Z,88
2019-03-28T06:24:10.625Z,88
2019-03-28T06:25:13.098Z,88
2019-03-28T06:26:16.819Z,88
2019-03-28T06:27:19.194Z,88
2019-03-28T06:28:21.272Z,88
2019-03-28T06:29:26.610Z,88
2019-03-28T06:30:28.714Z,88
2019-03-28T06:31:30.817Z,88
2019-03-28T06:32:44.294Z,88
2019-03-28T06:33:46.400Z,88
2019-03-28T06:34:48.514Z,88
2019-03-28T06:35:50.591Z,88
2019-03-28T06:36:52.685Z,88
2019-03-28T06:37:55.076Z,88
2019-03-28T06:38:57.165Z,88
2019-03-28T06:39:59.638Z,88
2019-03-28T06:41:02.377Z,87
2019-03-28T06:42:04.459Z,88
2019-03-28T06:43:06.590Z,88
2019-03-28T06:44:08.689Z,88
2019-03-28T06:45:11.067Z,88
2019-03-28T06:46:13.158Z,87
2019-03-28T06:47:15.538Z,87
2019-03-28T06:48:17.670Z,87
2019-03-28T06:49:19.757Z,87
2019-03-28T06:50:21.870Z,87
2019-03-28T06:51:24.259Z,87
2019-03-28T06:52:26.340Z,87
2019-03-28T06:53:28.714Z,87
2019-03-28T06:54:31.834Z,87
2019-03-28T06:55:37.376Z,87
2019-03-28T06:56:39.480Z,87
2019-03-28T06:57:42.001Z,87
2019-03-28T06:58:44.376Z,87
2019-03-28T06:59:46.760Z,87
2019-03-28T07:00:49.461Z,87
2019-03-28T07:01:52.936Z,87
2019-03-28T07:02:55.044Z,87
2019-03-28T07:03:57.921Z,87
2019-03-28T07:05:00.408Z,87
2019-03-28T07:06:02.519Z,87
2019-03-28T07:07:04.624Z,87
2019-03-28T07:08:06.706Z,87
2019-03-28T07:09:09.382Z,87
2019-03-28T07:10:12.218Z,87
2019-03-28T07:11:14.312Z,87
2019-03-28T07:12:16.401Z,87
2019-03-28T07:13:18.500Z,87
2019-03-28T07:14:20.581Z,87
2019-03-28T07:15:22.682Z,87
2019-03-28T07:16:24.791Z,87
2019-03-28T07:17:26.894Z,87
2019-03-28T07:18:29.000Z,87
2019-03-28T07:19:31.098Z,87
2019-03-28T07:20:33.191Z,86
2019-03-28T07:21:35.329Z,86
2019-03-28T07:22:37.438Z,86
2019-03-28T07:23:39.558Z,86
2019-03-28T07:24:41.656Z,86
2019-03-28T07:25:44.055Z,86
2019-03-28T07:26:46.456Z,86
2019-03-28T07:27:48.554Z,86
2019-03-28T07:28:50.651Z,86
2019-03-28T07:29:56.477Z,86
2019-03-28T07:30:58.565Z,86
2019-03-28T07:32:00.670Z,86
2019-03-28T07:33:02.764Z,86
2019-03-28T07:34:04.861Z,86
2019-03-28T07:35:06.973Z,86
2019-03-28T07:36:09.342Z,86
2019-03-28T07:37:11.447Z,86
2019-03-28T07:38:14.772Z,86
2019-03-28T07:39:20.299Z,86
2019-03-28T07:40:22.405Z,86
2019-03-28T07:41:24.788Z,86
2019-03-28T07:42:27.155Z,86
2019-03-28T07:43:29.253Z,86
2019-03-28T07:44:31.356Z,86
2019-03-28T07:45:35.484Z,86
2019-03-28T07:46:37.588Z,86
2019-03-28T07:47:39.959Z,86
2019-03-28T07:48:42.355Z,85
2019-03-28T07:49:46.020Z,85
2019-03-28T07:50:48.109Z,85
2019-03-28T07:51:50.227Z,85
2019-03-28T07:52:53.693Z,85
2019-03-28T07:53:55.942Z,85
2019-03-28T07:54:58.024Z,85
2019-03-28T07:56:00.131Z,85
2019-03-28T07:57:02.901Z,85
2019-03-28T07:58:09.875Z,85
2019-03-28T07:59:12.286Z,85
2019-03-28T08:00:14.375Z,85
2019-03-28T08:01:19.046Z,85
2019-03-28T08:02:21.224Z,86
2019-03-28T08:03:23.319Z,86
2019-03-28T08:04:25.691Z,85
2019-03-28T08:05:28.181Z,85
2019-03-28T08:06:30.602Z,85
2019-03-28T08:07:47.721Z,85
2019-03-28T08:08:49.831Z,85
2019-03-28T08:09:51.930Z,85
2019-03-28T08:10:54.031Z,85
2019-03-28T08:11:56.708Z,85
2019-03-28T08:12:58.803Z,85
2019-03-28T08:14:00.886Z,85
2019-03-28T08:15:02.988Z,85
2019-03-28T08:16:05.077Z,85
2019-03-28T08:17:07.173Z,85
2019-03-28T08:18:09.309Z,85
2019-03-28T08:19:12.364Z,85
2019-03-28T08:20:14.446Z,85
2019-03-28T08:21:16.550Z,85
2019-03-28T08:22:19.350Z,85
2019-03-28T08:23:21.456Z,85
2019-03-28T08:24:23.550Z,85
2019-03-28T08:25:25.671Z,85
2019-03-28T08:26:31.248Z,85
2019-03-28T08:27:33.362Z,85
2019-03-28T08:28:35.443Z,85
2019-03-28T08:29:37.574Z,85
2019-03-28T08:30:39.670Z,85
2019-03-28T08:31:43.231Z,85
2019-03-28T08:32:45.353Z,85
2019-03-28T08:33:47.452Z,85
2019-03-28T08:34:49.576Z,85
2019-03-28T08:35:51.971Z,85
2019-03-28T08:36:54.066Z,86
2019-03-28T08:37:56.137Z,85
2019-03-28T08:38:58.248Z,85
2019-03-28T08:40:00.987Z,86
2019-03-28T08:41:03.081Z,85
2019-03-28T08:42:08.846Z,85
2019-03-28T08:43:11.006Z,85
2019-03-28T08:44:13.489Z,85
2019-03-28T08:45:15.589Z,85
2019-03-28T08:46:17.966Z,85
2019-03-28T08:47:20.052Z,85
2019-03-28T08:48:22.158Z,85
2019-03-28T08:49:24.246Z,85
2019-03-28T08:50:26.345Z,85
2019-03-28T08:51:28.443Z,85
2019-03-28T08:52:30.581Z,85
2019-03-28T08:53:32.678Z,85
2019-03-28T08:54:34.790Z,85
2019-03-28T08:55:36.890Z,85
2019-03-28T08:56:39.000Z,85
2019-03-28T08:57:41.119Z,85
2019-03-28T08:58:43.479Z,85
2019-03-28T08:59:45.588Z,85
2019-03-28T09:00:54.173Z,85
2019-03-28T09:01:56.274Z,84
2019-03-28T09:02:58.464Z,85
2019-03-28T09:04:00.552Z,85
2019-03-28T09:05:02.649Z,85
2019-03-28T09:06:05.052Z,85
2019-03-28T09:07:07.452Z,84
2019-03-28T09:08:09.952Z,84
2019-03-28T09:09:12.367Z,84
2019-03-28T09:10:14.753Z,84
2019-03-28T09:11:17.129Z,84
2019-03-28T09:12:19.234Z,84
2019-03-28T09:13:21.319Z,84
2019-03-28T09:14:23.409Z,84
2019-03-28T09:15:25.534Z,85
2019-03-28T09:16:27.635Z,84
2019-03-28T09:17:29.738Z,84
2019-03-28T09:18:32.185Z,84
2019-03-28T09:19:34.679Z,84
2019-03-28T09:20:40.629Z,84
2019-03-28T09:21:42.726Z,84
2019-03-28T09:22:44.813Z,84
2019-03-28T09:23:46.924Z,84
2019-03-28T09:24:49.024Z,84
2019-03-28T09:25:51.122Z,84
2019-03-28T09:26:53.273Z,84
2019-03-28T09:27:55.389Z,84
2019-03-28T09:28:57.483Z,84
2019-03-28T09:29:59.892Z,84
2019-03-28T09:31:02.555Z,84
2019-03-28T09:32:04.645Z,84
2019-03-28T09:33:06.759Z,84
2019-03-28T09:34:08.864Z,84
2019-03-28T09:35:11.306Z,84
2019-03-28T09:36:13.752Z,84
2019-03-28T09:37:16.156Z,84
2019-03-28T09:38:18.299Z,84
2019-03-28T09:39:20.446Z,84
2019-03-28T09:40:22.579Z,84
2019-03-28T09:41:24.767Z,84
2019-03-28T09:42:27.594Z,84
2019-03-28T09:43:29.701Z,84
2019-03-28T09:44:32.095Z,84
2019-03-28T09:45:34.184Z,84
2019-03-28T09:46:36.281Z,84
2019-03-28T09:47:38.416Z,84
2019-03-28T09:48:40.500Z,84
2019-03-28T09:49:42.606Z,84
2019-03-28T09:50:44.702Z,84
2019-03-28T09:51:46.826Z,84
2019-03-28T09:52:48.928Z,84
2019-03-28T09:53:51.313Z,84
2019-03-28T09:54:53.409Z,84
2019-03-28T09:55:55.542Z,84
2019-03-28T09:56:57.929Z,84
2019-03-28T09:58:00.011Z,84
2019-03-28T09:59:02.235Z,84
2019-03-28T10:00:04.352Z,84
2019-03-28T10:01:06.444Z,84
2019-03-28T10:02:08.547Z,84
2019-03-28T10:03:10.656Z,85
2019-03-28T10:04:12.754Z,84
2019-03-28T10:05:15.145Z,85
2019-03-28T10:06:17.827Z,84
2019-03-28T10:07:19.918Z,84
2019-03-28T10:08:22.034Z,85
2019-03-28T10:09:24.538Z,85
2019-03-28T10:10:26.673Z,84
2019-03-28T10:11:28.765Z,84
2019-03-28T10:12:35.056Z,84
2019-03-28T10:13:37.495Z,84
2019-03-28T10:14:39.609Z,84
2019-03-28T10:15:41.729Z,84
2019-03-28T10:16:43.836Z,84
2019-03-28T10:17:45.928Z,84
2019-03-28T10:18:48.029Z,84
2019-03-28T10:19:50.146Z,85
2019-03-28T10:20:52.627Z,85
2019-03-28T10:21:55.093Z,85
2019-03-28T10:22:57.198Z,85
2019-03-28T10:23:59.360Z,85
2019-03-28T10:25:01.678Z,85
2019-03-28T10:26:04.262Z,85
2019-03-28T10:27:06.714Z,85
2019-03-28T10:28:08.992Z,85
2019-03-28T10:29:11.146Z,85
2019-03-28T10:30:13.241Z,85
2019-03-28T10:31:17.803Z,85
2019-03-28T10:32:19.902Z,85
2019-03-28T10:33:22.002Z,85
2019-03-28T10:34:24.085Z,85
2019-03-28T10:35:26.200Z,85
2019-03-28T10:36:28.900Z,85
2019-03-28T10:37:31.000Z,85
2019-03-28T10:38:33.208Z,85
2019-03-28T10:39:35.603Z,84
2019-03-28T10:40:37.710Z,85
2019-03-28T10:41:41.208Z,85
2019-03-28T10:42:43.329Z,85
2019-03-28T10:43:45.435Z,85
2019-03-28T10:44:47.544Z,85
2019-03-28T10:45:49.655Z,85
2019-03-28T10:46:52.129Z,85
2019-03-28T10:47:54.752Z,85
2019-03-28T10:48:56.847Z,85
2019-03-28T10:49:58.945Z,85
2019-03-28T10:51:01.032Z,85
2019-03-28T10:52:05.056Z,85
2019-03-28T10:53:07.163Z,85
2019-03-28T10:54:21.675Z,85
2019-03-28T10:55:27.774Z,85
2019-03-28T10:56:29.863Z,85
2019-03-28T10:57:33.604Z,85
2019-03-28T10:58:36.191Z,85
2019-03-28T10:59:38.569Z,85
2019-03-28T11:00:40.683Z,85
2019-03-28T11:01:52.192Z,84
2019-03-28T11:02:55.023Z,84
2019-03-28T11:03:57.504Z,85
2019-03-28T11:04:59.600Z,85
2019-03-28T11:06:01.692Z,85
2019-03-28T11:07:04.084Z,84
2019-03-28T11:08:06.548Z,84
2019-03-28T11:09:09.453Z,84
2019-03-28T11:10:12.226Z,84
2019-03-28T11:11:14.311Z,85
2019-03-28T11:12:16.441Z,85
2019-03-28T11:13:18.922Z,84
2019-03-28T11:14:21.025Z,84
2019-03-28T11:15:23.126Z,84
2019-03-28T11:16:25.239Z,84
2019-03-28T11:17:27.342Z,84
2019-03-28T11:18:29.714Z,84
2019-03-28T11:19:31.819Z,84
2019-03-28T11:20:33.915Z,84
2019-03-28T11:21:36.330Z,84
2019-03-28T11:22:38.748Z,84
2019-03-28T11:23:40.845Z,84
2019-03-28T11:24:46.849Z,84
2019-03-28T11:25:49.242Z,84
2019-03-28T11:26:51.461Z,84
2019-03-28T11:27:53.614Z,83
2019-03-28T11:28:56.393Z,83
2019-03-28T11:29:59.486Z,83
2019-03-28T11:31:01.636Z,83
2019-03-28T11:32:04.510Z,83
2019-03-28T11:33:07.817Z,83
2019-03-28T11:34:09.939Z,83
2019-03-28T11:35:12.082Z,83
2019-03-28T11:36:14.627Z,83
2019-03-28T11:37:28.990Z,83
2019-03-28T11:38:31.084Z,83
2019-03-28T11:39:33.182Z,83
2019-03-28T11:40:35.328Z,82
2019-03-28T11:41:37.413Z,83
2019-03-28T11:42:39.955Z,82
2019-03-28T11:43:42.236Z,83
2019-03-28T11:44:44.356Z,83
2019-03-28T11:45:46.479Z,82
2019-03-28T11:46:48.894Z,82
2019-03-28T11:47:50.986Z,82
2019-03-28T11:48:53.077Z,82
2019-03-28T11:49:56.685Z,82
2019-03-28T11:50:58.773Z,82
2019-03-28T11:52:01.145Z,82
2019-03-28T11:53:03.261Z,82
2019-03-28T11:54:05.357Z,83
2019-03-28T11:55:07.477Z,83
2019-03-28T11:56:09.577Z,83
2019-03-28T11:57:11.678Z,83
2019-03-28T11:58:13.769Z,83
2019-03-28T11:59:15.883Z,83
2019-03-28T12:00:18.066Z,83
2019-03-28T12:01:20.449Z,83
2019-03-28T12:02:25.922Z,83
2019-03-28T12:03:28.015Z,83
2019-03-28T12:04:30.131Z,83
2019-03-28T12:05:32.527Z,84
2019-03-28T12:06:34.958Z,84
2019-03-28T12:07:37.051Z,84
2019-03-28T12:08:39.159Z,84
2019-03-28T12:09:41.248Z,84
2019-03-28T12:10:43.358Z,84
2019-03-28T12:11:45.471Z,84
2019-03-28T12:12:47.600Z,84
2019-03-28T12:13:49.699Z,84
2019-03-28T12:14:51.826Z,84
2019-03-28T12:15:53.952Z,84
2019-03-28T12:16:56.040Z,84
2019-03-28T12:17:58.198Z,84
2019-03-28T12:19:01.045Z,83
2019-03-28T12:20:03.159Z,84
2019-03-28T12:21:05.547Z,84
2019-03-28T12:22:07.660Z,84
2019-03-28T12:23:10.141Z,84
2019-03-28T12:24:12.259Z,83
2019-03-28T12:25:14.355Z,83
2019-03-28T12:26:16.839Z,83
2019-03-28T12:27:19.282Z,83
2019-03-28T12:28:21.376Z,83
2019-03-28T12:29:24.748Z,83
2019-03-28T12:30:26.852Z,84
2019-03-28T12:31:29.272Z,84
2019-03-28T12:32:34.840Z,84
2019-03-28T12:33:36.956Z,83
2019-03-28T12:34:39.362Z,84
2019-03-28T12:35:41.486Z,84
2019-03-28T12:36:44.603Z,84
2019-03-28T12:37:46.770Z,84
2019-03-28T12:38:49.173Z,84
2019-03-28T12:39:51.284Z,84
2019-03-28T12:40:53.395Z,84
2019-03-28T12:41:55.489Z,84
2019-03-28T12:42:57.606Z,84
2019-03-28T12:44:00.011Z,84
2019-03-28T12:45:02.111Z,84
2019-03-28T12:46:04.235Z,85
2019-03-28T12:47:06.635Z,84
2019-03-28T12:48:09.387Z,84
2019-03-28T12:49:11.764Z,85
2019-03-28T12:50:13.865Z,85
2019-03-28T12:51:15.992Z,84
2019-03-28T12:52:19.222Z,84
2019-03-28T12:53:21.324Z,85
2019-03-28T12:54:23.431Z,85
2019-03-28T12:55:25.554Z,84
2019-03-28T12:56:27.646Z,84
2019-03-28T12:57:31.482Z,84
2019-03-28T12:58:33.589Z,84
2019-03-28T12:59:35.685Z,84
2019-03-28T13:00:38.088Z,84
2019-03-28T13:01:40.180Z,84
2019-03-28T13:02:42.996Z,84
2019-03-28T13:03:47.337Z,84
2019-03-28T13:04:49.507Z,84
2019-03-28T13:05:51.622Z,84
2019-03-28T13:06:53.763Z,84
2019-03-28T13:07:55.995Z,84
2019-03-28T13:08:58.087Z,84
2019-03-28T13:10:00.422Z,84
2019-03-28T13:11:04.279Z,84
2019-03-28T13:12:06.691Z,84
2019-03-28T13:13:08.825Z,84
2019-03-28T13:14:10.940Z,83
2019-03-28T13:15:14.461Z,84
2019-03-28T13:16:16.572Z,84
2019-03-28T13:17:18.692Z,84
2019-03-28T13:18:20.802Z,84
2019-03-28T13:19:22.907Z,84
2019-03-28T13:20:25.034Z,84
2019-03-28T13:21:27.121Z,84
2019-03-28T13:22:29.607Z,84
2019-03-28T13:23:31.719Z,84
2019-03-28T13:24:33.809Z,84
2019-03-28T13:25:35.917Z,84
2019-03-28T13:26:37.968Z,84
2019-03-28T13:27:40.313Z,84
2019-03-28T13:28:42.711Z,84
2019-03-28T13:29:44.750Z,83
2019-03-28T13:30:46.803Z,84
2019-03-28T13:31:49.123Z,84
2019-03-28T13:32:51.159Z,84
2019-03-28T13:33:53.209Z,84
2019-03-28T13:34:55.541Z,84
2019-03-28T13:35:57.586Z,84
2019-03-28T13:36:59.618Z,84
2019-03-28T13:38:01.678Z,84
2019-03-28T13:39:03.717Z,84
2019-03-28T13:40:05.767Z,84
2019-03-28T13:41:07.814Z,84
2019-03-28T13:42:09.903Z,84
2019-03-28T13:43:12.240Z,84
2019-03-28T13:44:14.333Z,83
2019-03-28T13:45:16.400Z,83
2019-03-28T13:46:18.445Z,83
2019-03-28T13:47:20.503Z,83
2019-03-28T13:48:22.569Z,83
2019-03-28T13:49:24.615Z,83
2019-03-28T13:50:26.951Z,84
2019-03-28T13:51:28.985Z,84
2019-03-28T13:52:31.131Z,84
2019-03-28T13:53:40.769Z,84
2019-03-28T13:54:42.791Z,84
2019-03-28T13:55:45.626Z,84
2019-03-28T13:56:47.674Z,84
2019-03-28T13:57:53.545Z,84
2019-03-28T13:58:55.594Z,84
2019-03-28T13:59:57.632Z,84
2019-03-28T14:00:59.678Z,84
2019-03-28T14:02:01.719Z,84
2019-03-28T14:03:04.470Z,84
2019-03-28T14:04:06.511Z,84
2019-03-28T14:05:08.562Z,84
2019-03-28T14:06:14.654Z,84
2019-03-28T14:07:18.384Z,84
2019-03-28T14:08:20.420Z,84
2019-03-28T14:09:24.774Z,84
2019-03-28T14:10:26.815Z,84
2019-03-28T14:11:29.177Z,84
2019-03-28T14:12:31.317Z,83
2019-03-28T14:13:33.366Z,83
2019-03-28T14:14:35.410Z,83
2019-03-28T14:15:37.447Z,83
2019-03-28T14:16:39.494Z,83
2019-03-28T14:17:41.539Z,83
2019-03-28T14:18:43.579Z,82
2019-03-28T14:19:45.615Z,82
2019-03-28T14:20:47.690Z,82
2019-03-28T14:21:49.760Z,82
2019-03-28T14:22:53.392Z,82
2019-03-28T14:23:55.456Z,82
2019-03-28T14:24:57.873Z,82
2019-03-28T14:25:59.925Z,83
2019-03-28T14:27:01.963Z,82
2019-03-28T14:28:04.281Z,83
2019-03-28T14:29:08.028Z,83
2019-03-28T14:30:12.291Z,83
2019-03-28T14:31:14.728Z,83
2019-03-28T14:32:16.771Z,83
2019-03-28T14:33:18.811Z,83
2019-03-28T14:34:20.855Z,83
2019-03-28T14:35:23.552Z,83
2019-03-28T14:36:26.690Z,83
2019-03-28T14:37:29.002Z,83
2019-03-28T14:38:31.045Z,83
2019-03-28T14:39:33.093Z,83
2019-03-28T14:40:35.131Z,83
2019-03-28T14:41:37.185Z,83
2019-03-28T14:42:39.232Z,83
2019-03-28T14:43:42.933Z,83
2019-03-28T14:44:44.970Z,83
2019-03-28T14:45:47.061Z,83
2019-03-28T14:46:49.102Z,83
2019-03-28T14:47:51.146Z,83
2019-03-28T14:48:53.316Z,83
2019-03-28T14:49:57.575Z,83
2019-03-28T14:50:59.773Z,83
2019-03-28T14:52:01.817Z,83
2019-03-28T14:53:04.249Z,83